Tiempo atmosférico en la estación meteorológica de Capdepera, Illes Balears (57 m.)

Fecha
DESCASC
Temp. máxima en grados centígrados (hora)
DESCASC
Temp. mínima en grados centígrados (hora)
DESCASC
Temp. media en grados centígrados
DESCASC
Racha de viento máxima en m/sg (hora)
DESCASC
Velocidad máxima media en intervalos de 10 minutos(hora)
DESCASC
Precipitaciones diarias en mm
DESCASC
Precipitaciones de 00:00 a 06:00 en mm
DESCASC
Precipitaciones de 06:00 a 12:00 en mm
DESCASC
Precipitaciones de 12:00 a 18:00 en mm
DESCASC
Precipitaciones de 18:00 a 24:00 en mm
DESCASC
19-10-2017 22.5 (00:10) 16 (07:00) 19.3 18.89 (14:00) 15 (13:50) 3.1 0 2.9 0.2 0
18-10-2017 25.9 (13:50) 19.1 (07:30) 22.5 14.44 (21:40) 10.83 (14:30) 0 0 0 0 0
17-10-2017 25.8 (15:00) 20.4 (07:20) 23.1 7.78 (04:00) 6.67 (22:20) 0 0 0 0 0
16-10-2017 24.9 (14:20) 20.6 (03:10) 22.8 9.17 (10:50) 6.67 (20:50) 0 0 0 0 0
15-10-2017 25.1 (15:00) 20.7 (00:00) 22.9 9.17 (22:10) 6.67 (11:00) 0 0 0 0 0
14-10-2017 26.5 (14:40) 19.7 (00:00) 23.1 7.78 (13:30) 6.11 (12:40) 0 0 0 0 0
13-10-2017 26.6 (13:10) 18.5 (00:00) 22.6 11.94 (18:30) 7.78 (14:50) 0 0 0 0 0
12-10-2017 26.5 (13:30) 19.3 (00:00) 22.9 11.67 (17:00) 8.33 (18:20) 0 0 0 0 0
11-10-2017 25.9 (14:20) 18.8 (00:00) 22.3 11.39 (17:40) 7.5 (14:10) 0 0 0 0 0
10-10-2017 26.2 (11:30) 18.2 (00:00) 22.2 6.39 (20:00) 5 (20:00) 0 0 0 0 0
09-10-2017 23.8 (13:50) 19.2 (00:00) 21.5 8.33 (10:00) 6.94 (10:10) 0 0 0 0 0
08-10-2017 26.2 (14:30) 17.7 (00:00) 22 7.5 (18:40) 6.11 (19:10) 0 0 0 0 0
07-10-2017 23.2 (14:40) 18.1 (00:00) 20.7 25 (05:10) 18.89 (04:50) 0 0 0 0 0
06-10-2017 26.3 (15:00) 19.7 (00:00) 23 15.83 (23:59) 12.5 (23:59) 0 0 0 0 0
05-10-2017 27.1 (14:40) 19 (00:00) 23.1 8.61 (15:00) 6.11 (15:00) 0 0 0 0 0
04-10-2017 23.3 (13:10) 19.6 (00:00) 21.4 12.78 (07:10) 11.11 (07:30) 0 0 0 0 0
03-10-2017 22.1 (17:10) 19.7 (00:00) 20.9 8.33 (06:50) 6.67 (06:50) 0 0 0 0 0
02-10-2017 21.1 (21:10) 18.5 (00:00) 19.8 16.39 (12:10) 12.22 (12:10) 1.1 0 0 1.1 0
01-10-2017 21.5 (10:20) 19.8 (00:00) 20.6 10.56 (13:00) 8.06 (08:00) 0 0 0 0 0
30-09-2017 25.7 (14:30) 18.7 (00:00) 22.2 6.39 (14:40) 4.17 (08:10) 0 0 0 0 0
29-09-2017 24 (12:20) 19.8 (00:00) 21.9 6.94 (10:40) 5 (10:30) 0 0 0 0 0
28-09-2017 24.3 (14:10) 20 (00:00) 22.1 6.39 (09:50) 5.28 (09:50) 0 0 0 0 0
27-09-2017 26.1 (15:00) 19.7 (00:00) 22.9 7.5 (03:30) 5 (03:30) 0 0 0 0 0
26-09-2017 23.6 (11:40) 19.9 (00:00) 21.8 17.5 (02:00) 15 (01:40) 0 0 0 0 0
25-09-2017 25.7 (13:50) 19.9 (00:00) 22.8 17.22 (15:40) 11.94 (23:59) 0 0 0 0 0
24-09-2017 27.5 (14:10) 19.5 (00:00) 23.5 11.11 (17:00) 8.06 (16:50) 0 0 0 0 0
23-09-2017 25.3 (13:00) 20.9 (00:00) 23.1 7.5 (07:10) 5.83 (08:10) 0 0 0 0 0
22-09-2017 24.6 (12:30) 21 (00:00) 22.8 8.33 (00:50) 6.39 (00:30) 0 0 0 0 0
21-09-2017 26.6 (13:50) 19.7 (00:00) 23.2 9.72 (12:50) 7.5 (13:30) 0 0 0 0 0
20-09-2017 24.5 (15:00) 18.4 (00:00) 21.4 10.83 (18:50) 7.5 (19:10) 0 0 0 0 0

Gráficas

Temp. máximas Temp. mínimas Temp. medias Precipitaciones Rachas de viento máximas Velocidades máximas media en intervalos de 10 minutos

Datos horarios

Fecha y hora oficial Temperatura (ºC) Velocidad del viento (km/h) Dirección del viento Racha (km/h) Dirección de racha Precipitación (mm) Presión (hPa) Tendencia (hPa) Humedad (%)
2017-10-19 23:00:00 16.5 0 Calma 2 Noroeste 0 -- -- 77
2017-10-19 22:00:00 16.7 3 Noroeste 8 Sudoeste 0 -- -- 75
2017-10-19 21:00:00 16.3 8 Oeste 10 Oeste 0 -- -- 82
2017-10-19 20:00:00 16.3 5 Sudoeste 11 Sudoeste 0 -- -- 95
2017-10-19 19:00:00 16.7 6 Sudoeste 12 Sudoeste 0 -- -- 94
2017-10-19 18:00:00 16.7 5 Sudoeste 14 Oeste 0 -- -- 94
2017-10-19 17:00:00 17.1 12 Oeste 20 Oeste 0 -- -- 94
2017-10-19 16:00:00 17.2 9 Sudoeste 42 Sur 0 -- -- 96
2017-10-19 15:00:00 18.1 24 Sur 63 Sur 0 -- -- 97
2017-10-19 14:00:00 17.8 46 Sur 68 Sur 0.2 -- -- 99
2017-10-19 13:00:00 19.1 24 Sur 34 Sudeste 0 -- -- 98
2017-10-19 12:00:00 18.1 3 Sudoeste 52 Sudeste 1.1 -- -- 99
2017-10-19 11:00:00 19.1 45 Sudeste 57 Sudeste 0 -- -- 97
2017-10-19 10:00:00 18.9 37 Sudeste 46 Sudeste 0 -- -- 99
2017-10-19 09:00:00 18 26 Sudeste 34 Sudeste 0 -- -- 99
2017-10-19 08:00:00 16.6 17 Sudeste 26 Este 0 -- -- 99
2017-10-19 07:00:00 16.2 6 Oeste 50 Sur 1.8 -- -- 99
2017-10-19 06:00:00 18.8 2 Oeste 10 Sudoeste 0 -- -- 94
2017-10-19 05:00:00 18.7 3 Sur 18 Sudoeste 0 -- -- 92
2017-10-19 04:00:00 18.7 11 Sudoeste 42 Sudoeste 0 -- -- 89
2017-10-19 03:00:00 18.9 23 Sudoeste 58 Sudoeste 0 -- -- 87
2017-10-19 02:00:00 21.5 28 Sudoeste 45 Sur 0 -- -- 79
2017-10-19 01:00:00 22.1 27 Sur 48 Sur 0 -- -- 87
2017-10-19 00:00:00 22.4 32 Sur 45 Sur 0 -- -- 82
2017-10-18 23:00:00 22.4 27 Sur 37 Sur 0 -- -- 84
2017-10-18 22:00:00 22.7 30 Sur 52 Sur 0 -- -- 79
2017-10-18 21:00:00 22.8 35 Sur 43 Sur 0 -- -- 81
2017-10-18 20:00:00 22.9 28 Sur 45 Sudeste 0 -- -- 80
2017-10-18 19:00:00 22.9 33 Sur 45 Sur 0 -- -- 80
2017-10-18 18:00:00 23.1 37 Sur 48 Sur 0 -- -- 87
2017-10-18 17:00:00 23.6 35 Sur 42 Sur 0 -- -- 84
2017-10-18 16:00:00 24.8 37 Sur 50 Sur 0 -- -- 77
2017-10-18 15:00:00 23.8 31 Sur 46 Sur 0 -- -- 79
2017-10-18 14:00:00 24.5 34 Sur 39 Sur 0 -- -- 71
2017-10-18 13:00:00 25.2 31 Sur 39 Sur 0 -- -- 75
2017-10-18 12:00:00 25.3 28 Sur 31 Sur 0 -- -- 77
2017-10-18 11:00:00 23.9 16 Sur 20 Sur 0 -- -- 84
2017-10-18 10:00:00 22 8 Sur 13 Sur 0 -- -- 93
2017-10-18 09:00:00 20.6 5 Sur 13 Sur 0 -- -- 94
2017-10-18 08:00:00 19.2 11 Sur 15 Sudoeste 0 -- -- 93
2017-10-18 07:00:00 19.7 10 Sur 13 Sudeste 0 -- -- 94
2017-10-18 06:00:00 19.3 8 Sur 11 Sur 0 -- -- 88
2017-10-18 05:00:00 19.5 4 Sudoeste 8 Sur 0 -- -- 91
2017-10-18 04:00:00 20.1 5 Sudoeste 10 Oeste 0 -- -- 94
2017-10-18 03:00:00 20.5 9 Oeste 12 Sudoeste 0 -- -- 94
2017-10-18 02:00:00 20.5 9 Sudoeste 12 Sur 0 -- -- 94
2017-10-18 01:00:00 20.6 11 Sur 15 Sur 0 -- -- 92
2017-10-18 00:00:00 21.2 10 Sur 23 Sur 0 -- -- 90
2017-10-17 23:00:00 21.7 15 Sur 27 Sudeste 0 -- -- 92
2017-10-17 22:00:00 21.8 19 Sudeste 25 Sudeste 0 -- -- 92
2017-10-17 21:00:00 21.7 20 Sudeste 27 Sudeste 0 -- -- 89
2017-10-17 20:00:00 21.9 19 Sudeste 25 Sudeste 0 -- -- 89
2017-10-17 19:00:00 22 20 Sudeste 26 Sudeste 0 -- -- 88
2017-10-17 18:00:00 22.4 17 Sudeste 24 Sudeste 0 -- -- 82
2017-10-17 17:00:00 23.2 19 Sudeste 27 Sudeste 0 -- -- 79
2017-10-17 16:00:00 24.8 18 Sudeste 24 Sudeste 0 -- -- 71
2017-10-17 15:00:00 25.1 19 Sur 26 Sudeste 0 -- -- 68
2017-10-17 14:00:00 25 21 Sudeste 27 Nordeste 0 -- -- 69
2017-10-17 13:00:00 23.6 21 Sudeste 26 Este 0 -- -- 73
2017-10-17 12:00:00 24.4 18 Sudeste 25 Sudeste 0 -- -- 69
2017-10-17 11:00:00 24 16 Sudeste 24 Sudeste 0 -- -- 71
2017-10-17 10:00:00 23.3 15 Este 24 Sudeste 0 -- -- 74
2017-10-17 09:00:00 22 16 Sudeste 24 Sudeste 0 -- -- 83
2017-10-17 08:00:00 20.9 17 Sudeste 22 Sudeste 0 -- -- 87
2017-10-17 07:00:00 20.5 4 Sur 13 Sudeste 0 -- -- 89
2017-10-17 06:00:00 21 12 Sudeste 18 Sudeste 0 -- -- 86
2017-10-17 05:00:00 21 12 Sur 23 Sudeste 0 -- -- 84
2017-10-17 04:00:00 21.2 18 Sudeste 28 Este 0 -- -- 86
2017-10-17 03:00:00 20.8 15 Nordeste 20 Nordeste 0 -- -- 91
2017-10-17 02:00:00 20.8 10 Este 24 Sudeste 0 -- -- 89
2017-10-17 01:00:00 21 17 Sudeste 25 Sudeste 0 -- -- 85
2017-10-17 00:00:00 21.2 18 Sudeste 31 Este 0 -- -- 79
2017-10-16 23:00:00 21 17 Este 30 Este 0 -- -- 79
2017-10-16 22:00:00 21 17 Este 30 Sudeste 0 -- -- 82
2017-10-16 21:00:00 21.2 24 Sudeste 31 Sur 0 -- -- 83
2017-10-16 20:00:00 21.3 20 Sudeste 28 Sudeste 0 -- -- 84
2017-10-16 19:00:00 21.5 18 Este 28 Sudeste 0 -- -- 83
2017-10-16 18:00:00 21.7 7 Este 20 Este 0 -- -- 80
2017-10-16 17:00:00 22.1 9 Este 18 Nordeste 0 -- -- 76
2017-10-16 16:00:00 22.8 7 Este 15 Este 0 -- -- 70
2017-10-16 15:00:00 23.8 12 Sudeste 21 Sudeste 0 -- -- 62
2017-10-16 14:00:00 24.5 10 Sudeste 19 Este 0 -- -- 62
2017-10-16 13:00:00 24.6 16 Sudeste 29 Sudeste 0 -- -- 58
2017-10-16 12:00:00 22.4 11 Sudeste 28 Sudeste 0 -- -- 69
2017-10-16 11:00:00 21.6 11 Este 33 Sudeste 0 -- -- 70
2017-10-16 10:00:00 22.7 19 Sudeste 31 Sudeste 0 -- -- 66
2017-10-16 09:00:00 21.2 18 Este 28 Este 0 -- -- 75
2017-10-16 08:00:00 20.9 17 Sudeste 31 Sudeste 0 -- -- 77
2017-10-16 07:00:00 20.8 15 Sudeste 27 Este 0 -- -- 73
2017-10-16 06:00:00 20.8 9 Este 28 Este 0 -- -- 74
2017-10-16 05:00:00 20.9 17 Sudeste 26 Nordeste 0 -- -- 77
2017-10-16 04:00:00 20.8 15 Este 27 Este 0 -- -- 74
2017-10-16 03:00:00 20.8 18 Sudeste 32 Sudeste 0 -- -- 77
2017-10-16 02:00:00 20.8 17 Sudeste 27 Sudeste 0 -- -- 76
2017-10-16 01:00:00 20.8 14 Sudeste 31 Este 0 -- -- 76
2017-10-16 00:00:00 21 15 Este 30 Sudeste 0 -- -- 78
2017-10-15 23:00:00 21 21 Este 33 Este 0 -- -- 82
2017-10-15 22:00:00 21.1 22 Sudeste 30 Este 0 -- -- 82
2017-10-15 21:00:00 21.3 15 Sudeste 22 Sudeste 0 -- -- 80
2017-10-15 20:00:00 21.2 17 Sudeste 31 Sudeste 0 -- -- 77
2017-10-15 19:00:00 21.5 23 Sudeste 30 Sudeste 0 -- -- 74
2017-10-15 18:00:00 22 17 Sudeste 24 Este 0 -- -- 77
2017-10-15 17:00:00 22.4 14 Sudeste 23 Sudeste 0 -- -- 74
2017-10-15 16:00:00 24.1 19 Sudeste 26 Sudeste 0 -- -- 65
2017-10-15 15:00:00 24.2 19 Sudeste 27 Sudeste 0 -- -- 64
2017-10-15 14:00:00 23.5 18 Sudeste 26 Sudeste 0 -- -- 68
2017-10-15 13:00:00 22.9 18 Sudeste 29 Sudeste 0 -- -- 69
2017-10-15 12:00:00 23 17 Sudeste 26 Sudeste 0 -- -- 68
2017-10-15 11:00:00 22.1 24 Sudeste 30 Sudeste 0 -- -- 76
2017-10-15 10:00:00 21.6 19 Sudeste 29 Este 0 -- -- 76
2017-10-15 09:00:00 21.1 16 Sudeste 26 Sudeste 0 -- -- 79
2017-10-15 08:00:00 20.8 15 Sudeste 25 Sudeste 0 -- -- 79
2017-10-15 07:00:00 20.9 19 Sudeste 26 Sudeste 0 -- -- 80
2017-10-15 06:00:00 21 21 Sudeste 27 Sudeste 0 -- -- 85
2017-10-15 05:00:00 21 20 Sudeste 27 Sudeste 0 -- -- 87
2017-10-15 04:00:00 21.1 23 Sudeste 26 Sudeste 0 -- -- 84
2017-10-15 03:00:00 21.1 19 Sudeste 24 Sudeste 0 -- -- 85
2017-10-15 02:00:00 21.1 19 Sudeste 24 Sur 0 -- -- 86
2017-10-15 01:00:00 21.3 19 Sudeste 27 Sudeste 0 -- -- 83
2017-10-15 00:00:00 21.4 17 Sudeste 26 Sudeste 0 -- -- 83
2017-10-14 23:00:00 21.6 16 Sudeste 24 Sudeste 0 -- -- 83
2017-10-14 22:00:00 21.3 19 Sudeste 26 Sudeste 0 -- -- 83
2017-10-14 21:00:00 21.4 18 Sudeste 25 Sudeste 0 -- -- 83
2017-10-14 20:00:00 21.4 18 Sudeste 24 Sudeste 0 -- -- 83
2017-10-14 19:00:00 21.8 16 Sur 23 Sudeste 0 -- -- 80
2017-10-14 18:00:00 22.6 15 Sur 22 Sudeste 0 -- -- 74
2017-10-14 17:00:00 24 17 Sur 27 Sudeste 0 -- -- 67
2017-10-14 16:00:00 25.4 17 Sur 25 Sur 0 -- -- 63
2017-10-14 15:00:00 25.4 19 Sur 26 Sur 0 -- -- 62
2017-10-14 14:00:00 25.2 22 Sur 28 Sudeste 0 -- -- 64
2017-10-14 13:00:00 24.8 22 Sur 28 Sudeste 0 -- -- 66
2017-10-14 12:00:00 24.6 22 Sudeste 27 Sudeste 0 -- -- 70
2017-10-14 11:00:00 23.9 20 Sudeste 27 Sudeste 0 -- -- 72
2017-10-14 10:00:00 23.3 17 Sudeste 23 Sudeste 0 -- -- 77
2017-10-14 09:00:00 20.8 10 Sur 20 Sudeste 0 -- -- 90
2017-10-14 08:00:00 20.1 10 Sur 13 Sur 0 -- -- 95
2017-10-14 07:00:00 19.9 11 Sur 14 Sur 0 -- -- 95
2017-10-14 06:00:00 20 12 Sur 17 Sur 0 -- -- 95
2017-10-14 05:00:00 20.2 12 Sur 16 Sur 0 -- -- 95
2017-10-14 04:00:00 20.1 12 Sur 16 Sur 0 -- -- 96
2017-10-14 03:00:00 20 13 Sur 15 Sur 0 -- -- 96
2017-10-14 02:00:00 19.9 12 Sur 14 Sur 0 -- -- 96
2017-10-14 01:00:00 20 12 Sur 15 Sur 0 -- -- 95
2017-10-14 00:00:00 20.1 12 Sur 17 Sur 0 -- -- 95
2017-10-13 23:00:00 20.5 12 Sur 21 Sur 0 -- -- 94
2017-10-13 22:00:00 20.8 16 Sur 30 Sur 0 -- -- 92
2017-10-13 21:00:00 21.3 19 Sur 31 Sur 0 -- -- 90
2017-10-13 20:00:00 21.6 21 Sur 36 Sur 0 -- -- 89
2017-10-13 19:00:00 21.7 21 Sur 43 Sur 0 -- -- 87
2017-10-13 18:00:00 22.2 24 Sur 37 Sudeste 0 -- -- 83
2017-10-13 17:00:00 23.3 26 Sur 40 Sur 0 -- -- 78
2017-10-13 16:00:00 23.3 22 Sur 36 Sur 0 -- -- 77
2017-10-13 15:00:00 23.9 27 Sur 33 Sur 0 -- -- 74
2017-10-13 14:00:00 25.9 26 Sur 31 Sur 0 -- -- 68
2017-10-13 13:00:00 26.3 22 Sur 28 Sudeste 0 -- -- 68
2017-10-13 12:00:00 24.1 21 Sur 35 Sudeste 0 -- -- 76
2017-10-13 11:00:00 24.2 12 Sur 20 Sur 0 -- -- 76
2017-10-13 10:00:00 23.3 6 Sudoeste 12 Sur 0 -- -- 83
2017-10-13 09:00:00 21.4 5 Sudoeste 18 Sudoeste 0 -- -- 92
2017-10-13 08:00:00 18.8 13 Sudoeste 15 Sudoeste 0 -- -- 97
2017-10-13 07:00:00 18.9 9 Sudoeste 22 Sudoeste 0 -- -- 97
2017-10-13 06:00:00 18.8 12 Sudoeste 18 Sudoeste 0 -- -- 97
2017-10-13 05:00:00 19 12 Sudoeste 14 Sudoeste 0 -- -- 97
2017-10-13 04:00:00 19.1 12 Sudoeste 15 Sudoeste 0 -- -- 97
2017-10-13 03:00:00 19.5 6 Sudoeste 20 Sudoeste 0 -- -- 96
2017-10-13 02:00:00 19.7 19 Sudoeste 22 Sudoeste 0 -- -- 96
2017-10-13 01:00:00 19.8 19 Sudoeste 23 Sudoeste 0 -- -- 95
2017-10-13 00:00:00 19.6 15 Sudoeste 19 Sudoeste 0 -- -- 94
2017-10-12 23:00:00 19.8 10 Sudoeste 14 Sudoeste 0 -- -- 92
2017-10-12 22:00:00 20.2 9 Sudoeste 12 Sudoeste 0 -- -- 90
2017-10-12 21:00:00 20.7 8 Sudoeste 23 Sur 0 -- -- 91
2017-10-12 20:00:00 21.4 19 Sur 30 Sur 0 -- -- 90
2017-10-12 19:00:00 22.3 24 Sur 38 Sur 0 -- -- 87
2017-10-12 18:00:00 22.4 22 Sur 40 Sudoeste 0 -- -- 85
2017-10-12 17:00:00 23.3 26 Sur 42 Sur 0 -- -- 80
2017-10-12 16:00:00 23.1 19 Sur 40 Sudeste 0 -- -- 79
2017-10-12 15:00:00 24.9 26 Sur 35 Sur 0 -- -- 70
2017-10-12 14:00:00 26 25 Sur 32 Sur 0 -- -- 68
2017-10-12 13:00:00 26.1 24 Sur 28 Sur 0 -- -- 66
2017-10-12 12:00:00 24.4 20 Sur 28 Sur 0 -- -- 73
2017-10-12 11:00:00 24.1 14 Sur 21 Sur 0 -- -- 74
2017-10-12 10:00:00 23.7 9 Sudoeste 15 Sudoeste 0 -- -- 77
2017-10-12 09:00:00 21.4 12 Sudoeste 13 Sudoeste 0 -- -- 88
2017-10-12 08:00:00 19.4 12 Sudoeste 14 Sudoeste 0 -- -- 93
2017-10-12 07:00:00 19.6 13 Sudoeste 17 Sudoeste 0 -- -- 92
2017-10-12 06:00:00 19.5 13 Sudoeste 14 Sudoeste 0 -- -- 92
2017-10-12 05:00:00 19.4 12 Sudoeste 16 Sudoeste 0 -- -- 92
2017-10-12 04:00:00 19.7 14 Sudoeste 17 Sudoeste 0 -- -- 92
2017-10-12 03:00:00 19.5 12 Sudoeste 15 Sudoeste 0 -- -- 92
2017-10-12 02:00:00 19.5 14 Sudoeste 15 Sudoeste 0 -- -- 92
2017-10-12 01:00:00 19.5 14 Sudoeste 17 Sudoeste 0 -- -- 92
2017-10-12 00:00:00 19.8 13 Sudoeste 15 Sudoeste 0 -- -- 91
2017-10-11 23:00:00 19.9 10 Sudoeste 18 Sudoeste 0 -- -- 89
2017-10-11 22:00:00 20.2 12 Sudoeste 18 Sudoeste 0 -- -- 89
2017-10-11 21:00:00 20.6 12 Sudoeste 18 Sudoeste 0 -- -- 89
2017-10-11 20:00:00 21.3 12 Sudoeste 30 Sur 0 -- -- 89
2017-10-11 19:00:00 22.1 19 Sur 38 Sur 0 -- -- 84
2017-10-11 18:00:00 22.4 22 Sur 41 Sur 0 -- -- 80
2017-10-11 17:00:00 23.2 20 Sur 37 Sur 0 -- -- 74
2017-10-11 16:00:00 24.4 26 Sur 34 Sur 0 -- -- 69
2017-10-11 15:00:00 24.9 26 Sur 33 Sur 0 -- -- 68
2017-10-11 14:00:00 25.7 27 Sur 34 Sur 0 -- -- 67
2017-10-11 13:00:00 25.3 25 Sur 32 Sudeste 0 -- -- 68
2017-10-11 12:00:00 25.3 23 Sur 28 Sur 0 -- -- 68
2017-10-11 11:00:00 24.6 11 Sur 17 Sur 0 -- -- 68
2017-10-11 10:00:00 23.5 4 Sur 11 Oeste 0 -- -- 73
2017-10-11 09:00:00 22 5 Oeste 9 Oeste 0 -- -- 81
2017-10-11 08:00:00 18.8 8 Oeste 11 Sudoeste 0 -- -- 92
2017-10-11 07:00:00 19 11 Sudoeste 14 Sudoeste 0 -- -- 89
2017-10-11 06:00:00 19.3 13 Sudoeste 14 Sudoeste 0 -- -- 87
2017-10-11 05:00:00 19.5 12 Sudoeste 13 Sudoeste 0 -- -- 89
2017-10-11 04:00:00 19.5 10 Sudoeste 12 Sudoeste 0 -- -- 89
2017-10-11 03:00:00 19.6 8 Sudoeste 10 Sudoeste 0 -- -- 92
2017-10-11 02:00:00 19.8 6 Oeste 10 Oeste 0 -- -- 92
2017-10-11 01:00:00 19.8 5 Oeste 9 Noroeste 0 -- -- 93
2017-10-11 00:00:00 20 9 Noroeste 11 Noroeste 0 -- -- 93
2017-10-10 23:00:00 20.5 9 Noroeste 11 Noroeste 0 -- -- 91
2017-10-10 22:00:00 21 9 Norte 17 Norte 0 -- -- 89
2017-10-10 21:00:00 21.4 13 Norte 22 Norte 0 -- -- 86
2017-10-10 20:00:00 21.4 18 Norte 23 Norte 0 -- -- 86
2017-10-10 19:00:00 21.5 14 Nordeste 18 Nordeste 0 -- -- 82
2017-10-10 18:00:00 21.7 11 Nordeste 14 Nordeste 0 -- -- 79
2017-10-10 17:00:00 22.4 10 Nordeste 13 Nordeste 0 -- -- 74
2017-10-10 16:00:00 22.9 7 Nordeste 12 Nordeste 0 -- -- 71
2017-10-10 15:00:00 22.7 8 Nordeste 12 Norte 0 -- -- 69
2017-10-10 14:00:00 22.9 8 Nordeste 15 Nordeste 0 -- -- 69
2017-10-10 13:00:00 23.7 9 Nordeste 16 Norte 0 -- -- 67
2017-10-10 12:00:00 23.8 6 Nordeste 17 Norte 0 -- -- 66
2017-10-10 11:00:00 25.3 6 Sudoeste 17 Sudoeste 0 -- -- 59
2017-10-10 10:00:00 23.6 8 Sudoeste 16 Sudoeste 0 -- -- 71
2017-10-10 09:00:00 21.5 9 Oeste 14 Oeste 0 -- -- 79
2017-10-10 08:00:00 18.5 11 Oeste 14 Oeste 0 -- -- 88
2017-10-10 07:00:00 18.5 13 Sudoeste 18 Sudoeste 0 -- -- 87
2017-10-10 06:00:00 18.7 17 Sudoeste 19 Sudoeste 0 -- -- 87
2017-10-10 05:00:00 18.8 13 Sudoeste 16 Sudoeste 0 -- -- 88
2017-10-10 04:00:00 19.2 11 Sudoeste 16 Sudoeste 0 -- -- 86
2017-10-10 03:00:00 19.1 13 Sudoeste 17 Sudoeste 0 -- -- 88
2017-10-10 02:00:00 19.6 12 Sudoeste 14 Sudoeste 0 -- -- 89
2017-10-10 01:00:00 19.8 12 Sudoeste 14 Sudoeste 0 -- -- 88
2017-10-10 00:00:00 19.9 13 Sudoeste 14 Sur 0 -- -- 88
2017-10-09 23:00:00 19.9 11 Sur 13 Sur 0 -- -- 88
2017-10-09 22:00:00 20.7 10 Sudoeste 22 Sur 0 -- -- 84
2017-10-09 21:00:00 21 15 Sur 22 Sur 0 -- -- 80
2017-10-09 20:00:00 21.3 15 Sur 21 Sur 0 -- -- 78
2017-10-09 19:00:00 21.9 12 Sudeste 18 Sudeste 0 -- -- 74
2017-10-09 18:00:00 21.6 0 Calma 22 Nordeste 0 -- -- 74
2017-10-09 17:00:00 21 16 Nordeste 27 Norte 0 -- -- 77
2017-10-09 16:00:00 22 19 Nordeste 28 Norte 0 -- -- 73
2017-10-09 15:00:00 22.4 18 Nordeste 30 Norte 0 -- -- 69
2017-10-09 14:00:00 23.3 21 Nordeste 27 Nordeste 0 -- -- 64
2017-10-09 13:00:00 23.4 7 Este 21 Norte 0 -- -- 63
2017-10-09 12:00:00 23.1 9 Nordeste 27 Nordeste 0 -- -- 64
2017-10-09 11:00:00 23 22 Nordeste 29 Nordeste 0 -- -- 65
2017-10-09 10:00:00 22.2 23 Nordeste 30 Norte 0 -- -- 68
2017-10-09 09:00:00 21.5 17 Nordeste 24 Nordeste 0 -- -- 71
2017-10-09 08:00:00 19.5 5 Noroeste 9 Noroeste 0 -- -- 87
2017-10-09 07:00:00 19.4 6 Noroeste 9 Noroeste 0 -- -- 84
2017-10-09 06:00:00 19.6 7 Oeste 12 Oeste 0 -- -- 84
2017-10-09 05:00:00 19.6 10 Oeste 13 Noroeste 0 -- -- 87
2017-10-09 04:00:00 19.2 13 Noroeste 16 Noroeste 0 -- -- 90
2017-10-09 03:00:00 19.6 11 Noroeste 18 Noroeste 0 -- -- 86
2017-10-09 02:00:00 19.5 12 Oeste 16 Oeste 0 -- -- 83
2017-10-09 01:00:00 19.6 11 Oeste 15 Oeste 0 -- -- 84
2017-10-09 00:00:00 19.6 14 Sudoeste 16 Sudoeste 0 -- -- 85
2017-10-08 23:00:00 20.1 13 Oeste 19 Sudoeste 0 -- -- 82
2017-10-08 22:00:00 20.4 14 Sudoeste 19 Sudoeste 0 -- -- 81
2017-10-08 21:00:00 20.9 10 Noroeste 18 Norte 0 -- -- 81
2017-10-08 20:00:00 21.6 12 Norte 27 Sudeste 0 -- -- 77
2017-10-08 19:00:00 21.9 22 Sudeste 27 Sudeste 0 -- -- 76
2017-10-08 18:00:00 22.7 18 Sur 27 Sudeste 0 -- -- 71
2017-10-08 17:00:00 22.2 16 Sur 26 Sur 0 -- -- 68
2017-10-08 16:00:00 25.3 17 Sur 26 Sur 0 -- -- 58
2017-10-08 15:00:00 25.5 18 Sur 23 Sudeste 0 -- -- 56
2017-10-08 14:00:00 24.9 15 Sudeste 19 Sudeste 0 -- -- 55
2017-10-08 13:00:00 24.6 12 Sudeste 17 Sudeste 0 -- -- 58
2017-10-08 12:00:00 24.2 13 Sudeste 19 Sudeste 0 -- -- 55
2017-10-08 11:00:00 24.4 8 Sur 13 Sur 0 -- -- 54
2017-10-08 10:00:00 23.2 7 Sudoeste 16 Sudoeste 0 -- -- 56
2017-10-08 09:00:00 20.7 10 Sudoeste 15 Sudoeste 0 -- -- 61
2017-10-08 08:00:00 18.3 10 Oeste 15 Sudoeste 0 -- -- 66
2017-10-08 07:00:00 18.1 13 Oeste 16 Sudoeste 0 -- -- 66
2017-10-08 06:00:00 18.2 10 Sudoeste 17 Sudoeste 0 -- -- 64
2017-10-08 05:00:00 18.2 10 Sudoeste 12 Sudoeste 0 -- -- 62
2017-10-08 04:00:00 18 6 Sudoeste 9 Sudoeste 0 -- -- 76
2017-10-08 03:00:00 18.4 8 Oeste 9 Oeste 0 -- -- 79
2017-10-08 02:00:00 18.7 5 Oeste 8 Oeste 0 -- -- 79
2017-10-08 01:00:00 18.7 4 Oeste 8 Oeste 0 -- -- 80
2017-10-08 00:00:00 18.8 2 Oeste 7 Noroeste 0 -- -- 80
2017-10-07 23:00:00 18.6 7 Noroeste 12 Noroeste 0 -- -- 82
2017-10-07 22:00:00 19.2 7 Norte 19 Norte 0 -- -- 78
2017-10-07 21:00:00 19.7 10 Norte 18 Norte 0 -- -- 78
2017-10-07 20:00:00 19.2 13 Nordeste 24 Norte 0 -- -- 79
2017-10-07 19:00:00 19.3 20 Norte 28 Nordeste 0 -- -- 77
2017-10-07 18:00:00 19.6 20 Norte 28 Norte 0 -- -- 74
2017-10-07 17:00:00 20.8 22 Norte 33 Norte 0 -- -- 72
2017-10-07 16:00:00 20.5 25 Norte 36 Norte 0 -- -- 70
2017-10-07 15:00:00 21.8 30 Norte 37 Norte 0 -- -- 69
2017-10-07 14:00:00 22.6 23 Norte 29 Norte 0 -- -- 67
2017-10-07 13:00:00 21.6 17 Norte 33 Norte 0 -- -- 67
2017-10-07 12:00:00 20.4 26 Norte 42 Norte 0 -- -- 69
2017-10-07 11:00:00 20.5 30 Norte 48 Norte 0 -- -- 65
2017-10-07 10:00:00 19.7 37 Norte 50 Norte 0 -- -- 65
2017-10-07 09:00:00 19.2 37 Norte 49 Norte 0 -- -- 68
2017-10-07 08:00:00 18.5 41 Norte 59 Norte 0 -- -- 64
2017-10-07 07:00:00 18.3 52 Norte 66 Norte 0 -- -- 62
2017-10-07 06:00:00 18.6 53 Norte 90 Norte 0 -- -- 65
2017-10-07 05:00:00 19 66 Norte 86 Norte 0 -- -- 68
2017-10-07 04:00:00 19.6 59 Norte 74 Norte 0 -- -- 74
2017-10-07 03:00:00 20 54 Norte 71 Norte 0 -- -- 78
2017-10-07 02:00:00 19.9 55 Norte 65 Norte 0 -- -- 77
2017-10-07 01:00:00 20.3 53 Norte 66 Norte 0 -- -- 76
2017-10-07 00:00:00 21 45 Norte 57 Norte 0 -- -- 80
2017-10-06 23:00:00 21.1 33 Norte 42 Norte 0 -- -- 81
2017-10-06 22:00:00 21 30 Nordeste 35 Nordeste 0 -- -- 89
2017-10-06 21:00:00 21 21 Norte 28 Nordeste 0 -- -- 88
2017-10-06 20:00:00 20.8 22 Norte 33 Norte 0 -- -- 89
2017-10-06 19:00:00 21.3 27 Norte 31 Norte 0 -- -- 87
2017-10-06 18:00:00 21.7 21 Norte 31 Norte 0 -- -- 87
2017-10-06 17:00:00 22.4 17 Norte 23 Norte 0 -- -- 84
2017-10-06 16:00:00 22.8 13 Nordeste 19 Nordeste 0 -- -- 83
2017-10-06 15:00:00 26 11 Norte 18 Norte 0 -- -- 69
2017-10-06 14:00:00 24 6 Nordeste 12 Nordeste 0 -- -- 74
2017-10-06 13:00:00 25.2 9 Sudeste 15 Sur 0 -- -- 70
2017-10-06 12:00:00 25.8 13 Sur 17 Sur 0 -- -- 71
2017-10-06 11:00:00 25.1 8 Sur 13 Sur 0 -- -- 72
2017-10-06 10:00:00 24.1 4 Sur 8 Sur 0 -- -- 78
2017-10-06 09:00:00 22.5 5 Sur 9 Sur 0 -- -- 83
2017-10-06 08:00:00 20 8 Sudoeste 11 Sudoeste 0 -- -- 91
2017-10-06 07:00:00 20.1 6 Sudoeste 9 Sudoeste 0 -- -- 87
2017-10-06 06:00:00 20.4 2 Sur 9 Nordeste 0 -- -- 86
2017-10-06 05:00:00 20.4 5 Nordeste 9 Nordeste 0 -- -- 80
2017-10-06 04:00:00 20.2 5 Noroeste 14 Oeste 0 -- -- 78
2017-10-06 03:00:00 20.2 13 Oeste 16 Oeste 0 -- -- 77
2017-10-06 02:00:00 20.2 12 Noroeste 14 Noroeste 0 -- -- 86
2017-10-06 01:00:00 19.9 6 Oeste 17 Oeste 0 -- -- 92
2017-10-06 00:00:00 19.9 15 Oeste 30 Oeste 0 -- -- 92
2017-10-05 23:00:00 20.2 19 Oeste 27 Oeste 0 -- -- 92
2017-10-05 22:00:00 20.6 16 Sudoeste 25 Sudoeste 0 -- -- 90
2017-10-05 21:00:00 21.5 13 Sudoeste 21 Sudoeste 0 -- -- 90
2017-10-05 20:00:00 22 10 Norte 19 Norte 0 -- -- 91
2017-10-05 19:00:00 22.3 17 Norte 22 Norte 0 -- -- 90
2017-10-05 18:00:00 22.5 16 Norte 19 Norte 0 -- -- 86
2017-10-05 17:00:00 23.4 8 Nordeste 19 Sur 0 -- -- 77
2017-10-05 16:00:00 25.7 16 Sur 29 Sur 0 -- -- 73
2017-10-05 15:00:00 25.7 22 Sur 31 Sur 0 -- -- 73
2017-10-05 14:00:00 26.4 17 Sur 23 Sudeste 0 -- -- 70
2017-10-05 13:00:00 25.2 4 Este 15 Sudeste 0 -- -- 73
2017-10-05 12:00:00 24.8 4 Nordeste 12 Sudoeste 0 -- -- 65
2017-10-05 11:00:00 24.4 4 Este 10 Sudoeste 0 -- -- 70
2017-10-05 10:00:00 23 2 Oeste 11 Oeste 0 -- -- 81
2017-10-05 09:00:00 22.2 10 Oeste 15 Sudoeste 0 -- -- 89
2017-10-05 08:00:00 19.5 12 Sudoeste 15 Sudoeste 0 -- -- 95
2017-10-05 07:00:00 19.4 11 Oeste 22 Sudoeste 0 -- -- 94
2017-10-05 06:00:00 19.1 18 Sudoeste 21 Sudoeste 0 -- -- 93
2017-10-05 05:00:00 19.4 12 Sudoeste 14 Sudoeste 0 -- -- 90
2017-10-05 04:00:00 20 8 Noroeste 14 Noroeste 0 -- -- 86
2017-10-05 03:00:00 20 12 Noroeste 14 Noroeste 0 -- -- 84
2017-10-05 02:00:00 20.1 8 Noroeste 10 Norte 0 -- -- 85
2017-10-05 01:00:00 20.3 0 Calma -- -- 0 -- -- 86
2017-10-05 00:00:00 20.5 0 Calma 5 Norte 0 -- -- 85
2017-10-04 23:00:00 20.5 4 Norte 8 Noroeste 0 -- -- 84
2017-10-04 22:00:00 20.2 6 Noroeste 9 Norte 0 -- -- 84
2017-10-04 21:00:00 20.9 8 Norte 11 Norte 0 -- -- 80
2017-10-04 20:00:00 21.1 9 Norte 15 Norte 0 -- -- 79
2017-10-04 19:00:00 21.5 9 Norte 15 Norte 0 -- -- 76
2017-10-04 18:00:00 22.5 10 Norte 21 Norte 0 -- -- 74
2017-10-04 17:00:00 21.8 17 Norte 25 Norte 0 -- -- 76
2017-10-04 16:00:00 21.8 20 Norte 31 Norte 0 -- -- 76
2017-10-04 15:00:00 22.6 28 Norte 33 Norte 0 -- -- 74
2017-10-04 14:00:00 22.2 28 Norte 35 Norte 0 -- -- 75
2017-10-04 13:00:00 23 23 Norte 36 Norte 0 -- -- 76
2017-10-04 12:00:00 22.7 28 Norte 37 Norte 0 -- -- 76
2017-10-04 11:00:00 22.5 28 Norte 43 Norte 0 -- -- 79
2017-10-04 10:00:00 22.4 34 Norte 41 Norte 0 -- -- 80
2017-10-04 09:00:00 21.9 37 Norte 44 Norte 0 -- -- 78
2017-10-04 08:00:00 21.2 36 Norte 46 Norte 0 -- -- 86
2017-10-04 07:00:00 21 36 Norte 45 Norte 0 -- -- 87
2017-10-04 06:00:00 20.8 21 Noroeste 28 Norte 0 -- -- 97
2017-10-04 05:00:00 20.8 17 Norte 24 Noroeste 0 -- -- 96
2017-10-04 04:00:00 20.7 14 Noroeste 46 Noroeste 0 -- -- 96
2017-10-04 03:00:00 20.6 15 Noroeste 26 Norte 0 -- -- 96
2017-10-04 02:00:00 20.4 11 Noroeste 14 Noroeste 0 -- -- 95
2017-10-04 01:00:00 20.4 11 Noroeste 15 Noroeste 0 -- -- 95
2017-10-04 00:00:00 20.4 12 Noroeste 14 Noroeste 0 -- -- 95
2017-10-03 23:00:00 20.4 8 Noroeste 14 Noroeste 0 -- -- 95
2017-10-03 22:00:00 20.3 10 Noroeste 17 Noroeste 0 -- -- 95
2017-10-03 21:00:00 20.6 13 Noroeste 19 Norte 0 -- -- 94
2017-10-03 20:00:00 20.7 12 Noroeste 27 Norte 0 -- -- 92
2017-10-03 19:00:00 21.1 12 Noroeste 21 Noroeste 0 -- -- 89
2017-10-03 18:00:00 21.4 4 Oeste 18 Norte 0 -- -- 89
2017-10-03 17:00:00 21.8 7 Norte 14 Noroeste 0 -- -- 92
2017-10-03 16:00:00 20.5 0 Calma 13 Norte 0 -- -- 97
2017-10-03 15:00:00 20.4 10 Norte 14 Norte 0 -- -- 97
2017-10-03 14:00:00 19.8 10 Oeste 19 Norte 0 -- -- 96
2017-10-03 13:00:00 20.5 12 Noroeste 20 Noroeste 0 -- -- 92
2017-10-03 12:00:00 21.1 15 Noroeste 26 Norte 0 -- -- 90
2017-10-03 11:00:00 21.4 12 Norte 26 Norte 0 -- -- 90
2017-10-03 10:00:00 21.6 19 Norte 26 Norte 0 -- -- 87
2017-10-03 09:00:00 21.5 18 Norte 26 Norte 0 -- -- 86
2017-10-03 08:00:00 20.7 18 Norte 24 Norte 0 -- -- 88
2017-10-03 07:00:00 20.8 21 Norte 30 Norte 0 -- -- 88
2017-10-03 06:00:00 20.8 21 Norte 25 Norte 0 -- -- 87
2017-10-03 05:00:00 20.6 18 Norte 26 Norte 0 -- -- 85
2017-10-03 04:00:00 20.8 19 Norte 24 Norte 0 -- -- 82
2017-10-03 03:00:00 20.7 15 Norte 19 Norte 0 -- -- 83
2017-10-03 02:00:00 20.5 15 Norte 23 Norte 0 -- -- 86
2017-10-03 01:00:00 20.6 18 Norte 25 Norte 0 -- -- 82
2017-10-03 00:00:00 20.4 20 Norte 30 Norte 0 -- -- 83
2017-10-02 23:00:00 20.7 24 Norte 34 Norte 0 -- -- 82
2017-10-02 22:00:00 20.7 26 Norte 37 Norte 0 -- -- 80
2017-10-02 21:00:00 20.8 28 Norte 36 Norte 0 -- -- 84
2017-10-02 20:00:00 20.9 28 Norte 38 Norte 0 -- -- 78
2017-10-02 19:00:00 20.8 29 Norte 39 Norte 0 -- -- 80
2017-10-02 18:00:00 20.5 29 Norte 41 Norte 0 -- -- 90
2017-10-02 17:00:00 20.4 35 Norte 42 Norte 0 -- -- 85
2017-10-02 16:00:00 20.2 36 Norte 44 Norte 0 -- -- 90
2017-10-02 15:00:00 20.2 37 Norte 48 Norte 0 -- -- 95
2017-10-02 14:00:00 19.9 36 Norte 44 Norte 0 -- -- 99
2017-10-02 13:00:00 18.7 28 Norte 59 Norte 1.1 -- -- 99
2017-10-02 12:00:00 19.4 39 Norte 49 Norte 0 -- -- 99
2017-10-02 11:00:00 20 39 Norte 47 Noroeste 0 -- -- 95
2017-10-02 10:00:00 20.8 26 Norte 39 Norte 0 -- -- 85
2017-10-02 09:00:00 20.5 15 Norte 24 Norte 0 -- -- 90
2017-10-02 08:00:00 19.9 13 Norte 19 Norte 0 -- -- 93
2017-10-02 07:00:00 19.5 13 Noroeste 17 Noroeste 0 -- -- 94
2017-10-02 06:00:00 19.6 12 Noroeste 17 Norte 0 -- -- 94
2017-10-02 05:00:00 19.1 12 Noroeste 14 Noroeste 0 -- -- 92
2017-10-02 04:00:00 19.5 9 Noroeste 11 Noroeste 0 -- -- 86
2017-10-02 03:00:00 19.6 8 Norte 11 Norte 0 -- -- 85
2017-10-02 02:00:00 19.5 8 Noroeste 11 Noroeste 0 -- -- 83
2017-10-02 01:00:00 19.8 7 Norte 12 Norte 0 -- -- 81
2017-10-02 00:00:00 20.1 6 Norte 16 Nordeste 0 -- -- 78
2017-10-01 23:00:00 20 6 Norte 17 Norte 0 -- -- 80
2017-10-01 22:00:00 19.9 9 Nordeste 13 Nordeste 0 -- -- 80
2017-10-01 21:00:00 20 9 Norte 22 Norte 0 -- -- 83
2017-10-01 20:00:00 20 6 Norte 15 Norte 0 -- -- 85
2017-10-01 19:00:00 20.1 9 Norte 21 Norte 0 -- -- 87
2017-10-01 18:00:00 20 12 Nordeste 21 Nordeste 0 -- -- 89
2017-10-01 17:00:00 20.4 9 Norte 21 Norte 0 -- -- 85
2017-10-01 16:00:00 20 13 Nordeste 20 Nordeste 0 -- -- 88
2017-10-01 15:00:00 19.9 12 Nordeste 27 Norte 0 -- -- 87
2017-10-01 14:00:00 20.3 23 Nordeste 34 Norte 0 -- -- 86
2017-10-01 13:00:00 21 28 Nordeste 38 Norte 0 -- -- 74
2017-10-01 12:00:00 21.1 24 Nordeste 30 Norte 0 -- -- 88
2017-10-01 11:00:00 21.2 18 Nordeste 29 Norte 0 -- -- 89
2017-10-01 10:00:00 20.7 23 Nordeste 30 Nordeste 0 -- -- 92
2017-10-01 09:00:00 21.1 24 Nordeste 32 Nordeste 0 -- -- 95
2017-10-01 08:00:00 20.7 29 Norte 34 Norte 0 -- -- 94
2017-10-01 07:00:00 20.9 26 Norte 32 Norte 0 -- -- 94
2017-10-01 06:00:00 20.2 13 Noroeste 16 Noroeste 0 -- -- 91
2017-10-01 05:00:00 20.3 10 Noroeste 12 Noroeste 0 -- -- 88
2017-10-01 04:00:00 20.3 11 Noroeste 14 Oeste 0 -- -- 90
2017-10-01 03:00:00 20.7 9 Oeste 14 Oeste 0 -- -- 90
2017-10-01 02:00:00 20.9 12 Oeste 14 Oeste 0 -- -- 86
2017-10-01 01:00:00 21.1 3 Sur 12 Sudoeste 0 -- -- 84
2017-10-01 00:00:00 21.3 11 Sudoeste 23 Sur 0 -- -- 85
2017-09-30 23:00:00 21.3 0 Calma 17 Nordeste 0 -- -- 85
2017-09-30 22:00:00 21.5 10 Norte 16 Norte 0 -- -- 84
2017-09-30 21:00:00 21.5 0 Calma -- -- 0 -- -- 80
2017-09-30 20:00:00 21.7 0 Calma 8 Norte 0 -- -- 78
2017-09-30 19:00:00 21.9 2 Nordeste 8 Sudeste 0 -- -- 76
2017-09-30 18:00:00 22.8 6 Sudeste 18 Sudeste 0 -- -- 72
2017-09-30 17:00:00 24 9 Sudeste 18 Sur 0 -- -- 67
2017-09-30 16:00:00 23.6 11 Sur 18 Sudeste 0 -- -- 72
2017-09-30 15:00:00 23.6 14 Sudeste 23 Sudeste 0 -- -- 72
2017-09-30 14:00:00 24.5 10 Sudeste 17 Sur 0 -- -- 68
2017-09-30 13:00:00 23.3 8 Nordeste 21 Norte 0 -- -- 72
2017-09-30 12:00:00 23.6 12 Norte 18 Norte 0 -- -- 71
2017-09-30 11:00:00 24.2 12 Norte 17 Norte 0 -- -- 69
2017-09-30 10:00:00 24.1 4 Oeste 9 Sudoeste 0 -- -- 71
2017-09-30 09:00:00 21.4 7 Oeste 16 Sudoeste 0 -- -- 83
2017-09-30 08:00:00 19 14 Sudoeste 16 Sudoeste 0 -- -- 89
2017-09-30 07:00:00 19.2 8 Sudoeste 10 Sudoeste 0 -- -- 87
2017-09-30 06:00:00 19.3 7 Oeste 10 Sudoeste 0 -- -- 87
2017-09-30 05:00:00 19.2 10 Sudoeste 12 Sudoeste 0 -- -- 89
2017-09-30 04:00:00 19.5 9 Sudoeste 11 Sudoeste 0 -- -- 89
2017-09-30 03:00:00 19.6 9 Sudoeste 10 Sudoeste 0 -- -- 89
2017-09-30 02:00:00 19.7 5 Sudoeste 10 Sudoeste 0 -- -- 89
2017-09-30 01:00:00 19.9 10 Sudoeste 12 Sudoeste 0 -- -- 89
2017-09-30 00:00:00 20 10 Sudoeste 12 Oeste 0 -- -- 87
2017-09-29 23:00:00 20.1 7 Sudoeste 8 Sudoeste 0 -- -- 84
2017-09-29 22:00:00 20.4 5 Sudoeste 6 Sudoeste 0 -- -- 82
2017-09-29 21:00:00 20.8 0 Calma 5 Nordeste 0 -- -- 81
2017-09-29 20:00:00 20.9 3 Nordeste 9 Norte 0 -- -- 79
2017-09-29 19:00:00 21.1 6 Nordeste 14 Norte 0 -- -- 79
2017-09-29 18:00:00 21.4 8 Norte 15 Nordeste 0 -- -- 80
2017-09-29 17:00:00 21.9 9 Norte 16 Norte 0 -- -- 77
2017-09-29 16:00:00 22.8 9 Nordeste 15 Nordeste 0 -- -- 70
2017-09-29 15:00:00 23 7 Nordeste 13 Nordeste 0 -- -- 67
2017-09-29 14:00:00 23 11 Norte 18 Norte 0 -- -- 67
2017-09-29 13:00:00 23.7 12 Nordeste 20 Norte 0 -- -- 65
2017-09-29 12:00:00 23.7 13 Nordeste 22 Nordeste 0 -- -- 65
2017-09-29 11:00:00 23.3 18 Nordeste 25 Nordeste 0 -- -- 67
2017-09-29 10:00:00 22.6 17 Norte 22 Nordeste 0 -- -- 71
2017-09-29 09:00:00 21.9 14 Nordeste 21 Nordeste 0 -- -- 83
2017-09-29 08:00:00 20.1 10 Noroeste 15 Noroeste 0 -- -- 94
2017-09-29 07:00:00 20.3 10 Norte 15 Norte 0 -- -- 92
2017-09-29 06:00:00 20 0 Calma 10 Este 0 -- -- 87
2017-09-29 05:00:00 20.4 3 Este 13 Este 0 -- -- 86
2017-09-29 04:00:00 20.6 7 Este 14 Este 0 -- -- 85
2017-09-29 03:00:00 20.8 6 Este 13 Nordeste 0 -- -- 85
2017-09-29 02:00:00 20.8 4 Nordeste 10 Nordeste 0 -- -- 86
2017-09-29 01:00:00 20.7 2 Sur 9 Este 0 -- -- 84
2017-09-29 00:00:00 21.2 3 Sudeste 8 Este 0 -- -- 84
2017-09-28 23:00:00 20.9 4 Sudeste 7 Sudeste 0 -- -- 83
2017-09-28 22:00:00 21 3 Norte 11 Norte 0 -- -- 82
2017-09-28 21:00:00 21.2 6 Norte 15 Nordeste 0 -- -- 80
2017-09-28 20:00:00 21.2 9 Norte 13 Norte 0 -- -- 81
2017-09-28 19:00:00 21.4 8 Nordeste 13 Nordeste 0 -- -- 80
2017-09-28 18:00:00 21.7 9 Nordeste 14 Nordeste 0 -- -- 74
2017-09-28 17:00:00 22.7 8 Nordeste 14 Nordeste 0 -- -- 65
2017-09-28 16:00:00 23.5 6 Nordeste 14 Nordeste 0 -- -- 61
2017-09-28 15:00:00 23.8 4 Este 13 Sudeste 0 -- -- 60
2017-09-28 14:00:00 24.1 7 Este 16 Nordeste 0 -- -- 63
2017-09-28 13:00:00 23.8 9 Este 18 Nordeste 0 -- -- 64
2017-09-28 12:00:00 23.2 8 Este 21 Nordeste 0 -- -- 70
2017-09-28 11:00:00 23.1 13 Nordeste 21 Nordeste 0 -- -- 77
2017-09-28 10:00:00 22.7 16 Nordeste 23 Nordeste 0 -- -- 80
2017-09-28 09:00:00 20.5 9 Norte 11 Noroeste 0 -- -- 92
2017-09-28 08:00:00 20.3 8 Norte 9 Noroeste 0 -- -- 90
2017-09-28 07:00:00 20.2 9 Norte 10 Noroeste 0 -- -- 88
2017-09-28 06:00:00 20.3 8 Noroeste 9 Norte 0 -- -- 85
2017-09-28 05:00:00 20.4 5 Oeste 8 Oeste 0 -- -- 84
2017-09-28 04:00:00 20.5 6 Oeste 8 Sudoeste 0 -- -- 85
2017-09-28 03:00:00 20.4 4 Sudoeste 10 Sur 0 -- -- 85
2017-09-28 02:00:00 20.6 7 Sur 13 Sur 0 -- -- 84
2017-09-28 01:00:00 21 7 Sur 19 Sur 0 -- -- 84
2017-09-28 00:00:00 21.5 14 Sur 23 Sudeste 0 -- -- 81
2017-09-27 23:00:00 21.7 16 Sudeste 26 Sudeste 0 -- -- 81
2017-09-27 22:00:00 21.8 16 Este 24 Sur 0 -- -- 82
2017-09-27 21:00:00 21.7 13 Este 23 Este 0 -- -- 82
2017-09-27 20:00:00 21.8 17 Nordeste 23 Norte 0 -- -- 80
2017-09-27 19:00:00 21.7 15 Norte 21 Norte 0 -- -- 77
2017-09-27 18:00:00 22.1 16 Norte 22 Norte 0 -- -- 73
2017-09-27 17:00:00 24.5 15 Norte 21 Norte 0 -- -- 62
2017-09-27 16:00:00 25.5 17 Norte 21 Norte 0 -- -- 58
2017-09-27 15:00:00 25.7 17 Norte 23 Norte 0 -- -- 59
2017-09-27 14:00:00 24.3 12 Norte 18 Norte 0 -- -- 62
2017-09-27 13:00:00 23.6 15 Norte 22 Norte 0 -- -- 65
2017-09-27 12:00:00 25 14 Norte 19 Norte 0 -- -- 62
2017-09-27 11:00:00 22.7 13 Norte 20 Norte 0 -- -- 70
2017-09-27 10:00:00 22.4 10 Nordeste 35 Nordeste 0 -- -- 72
2017-09-27 09:00:00 21.6 10 Nordeste 20 Norte 0 -- -- 77
2017-09-27 08:00:00 20.2 12 Nordeste 21 Nordeste 0 -- -- 85
2017-09-27 07:00:00 19.8 13 Nordeste 22 Norte 0 -- -- 86
2017-09-27 06:00:00 20.2 15 Norte 21 Norte 0 -- -- 82
2017-09-27 05:00:00 20.2 16 Norte 26 Norte 0 -- -- 83
2017-09-27 04:00:00 20.2 17 Norte 27 Norte 0 -- -- 84
2017-09-27 03:00:00 20.4 17 Norte 26 Norte 0 -- -- 83
2017-09-27 02:00:00 20.2 16 Norte 22 Norte 0 -- -- 85
2017-09-27 01:00:00 20.2 16 Norte 23 Nordeste 0 -- -- 86
2017-09-27 00:00:00 19.9 15 Norte 23 Nordeste 0 -- -- 87
2017-09-26 23:00:00 20.2 17 Norte 24 Nordeste 0 -- -- 86
2017-09-26 22:00:00 20.3 17 Norte 26 Norte 0 -- -- 85
2017-09-26 21:00:00 20.4 18 Norte 27 Norte 0 -- -- 84
2017-09-26 20:00:00 20.4 21 Norte 28 Norte 0 -- -- 87
2017-09-26 19:00:00 20.5 22 Norte 38 Norte 0 -- -- 83
2017-09-26 18:00:00 20.7 30 Norte 39 Norte 0 -- -- 83
2017-09-26 17:00:00 20.8 31 Norte 42 Norte 0 -- -- 80
2017-09-26 16:00:00 21.4 32 Norte 42 Norte 0 -- -- 78
2017-09-26 15:00:00 21.9 32 Norte 42 Norte 0 -- -- 77
2017-09-26 14:00:00 21.7 34 Norte 40 Norte 0 -- -- 79
2017-09-26 13:00:00 22.6 28 Norte 38 Norte 0 -- -- 72
2017-09-26 12:00:00 21.9 28 Norte 37 Norte 0 -- -- 76
2017-09-26 11:00:00 22.6 24 Nordeste 32 Nordeste 0 -- -- 74
2017-09-26 10:00:00 21.7 27 Nordeste 36 Nordeste 0 -- -- 77
2017-09-26 09:00:00 21.1 32 Nordeste 42 Nordeste 0 -- -- 77
2017-09-26 08:00:00 20.8 32 Nordeste 39 Nordeste 0 -- -- 86
2017-09-26 07:00:00 21 32 Nordeste 44 Nordeste 0 -- -- 85
2017-09-26 06:00:00 20.9 35 Nordeste 47 Nordeste 0 -- -- 82
2017-09-26 05:00:00 20.9 39 Nordeste 50 Nordeste 0 -- -- 89
2017-09-26 04:00:00 20.7 43 Nordeste 51 Nordeste 0 -- -- 90
2017-09-26 03:00:00 21 44 Nordeste 58 Norte 0 -- -- 90
2017-09-26 02:00:00 21.2 53 Norte 63 Norte 0 -- -- 93
2017-09-26 01:00:00 21.6 48 Norte 54 Norte 0 -- -- 96
2017-09-26 00:00:00 22.2 43 Norte 48 Norte 0 -- -- 97
2017-09-25 23:00:00 22.6 37 Norte 43 Norte 0 -- -- 95
2017-09-25 22:00:00 22.9 21 Norte 26 Norte 0 -- -- 92
2017-09-25 21:00:00 22.9 22 Norte 27 Norte 0 -- -- 91
2017-09-25 20:00:00 23.3 23 Norte 28 Norte 0 -- -- 90
2017-09-25 19:00:00 24.3 21 Norte 24 Norte 0 -- -- 87
2017-09-25 18:00:00 24.9 15 Norte 48 Sur 0 -- -- 80
2017-09-25 17:00:00 24.7 33 Sur 60 Sur 0 -- -- 81
2017-09-25 16:00:00 24.8 40 Sur 62 Sur 0 -- -- 83
2017-09-25 15:00:00 25.6 37 Sur 53 Sudoeste 0 -- -- 74
2017-09-25 14:00:00 25.3 33 Sur 53 Sudeste 0 -- -- 79
2017-09-25 13:00:00 25 35 Sur 47 Sur 0 -- -- 82
2017-09-25 12:00:00 24.2 22 Sur 37 Sudoeste 0 -- -- 80
2017-09-25 11:00:00 25 20 Sur 31 Sur 0 -- -- 70
2017-09-25 10:00:00 23.6 24 Sur 35 Sur 0 -- -- 79
2017-09-25 09:00:00 21.7 21 Sur 30 Sur 0 -- -- 95
2017-09-25 08:00:00 20.4 23 Sur 30 Sur 0 -- -- 98
2017-09-25 07:00:00 20.1 18 Sur 27 Sur 0 -- -- 98
2017-09-25 06:00:00 20 17 Sudoeste 22 Sudoeste 0 -- -- 98
2017-09-25 05:00:00 20.1 18 Sudoeste 23 Sudoeste 0 -- -- 98
2017-09-25 04:00:00 20.1 20 Sudoeste 24 Sudoeste 0 -- -- 97
2017-09-25 03:00:00 20.3 17 Sur 21 Sudoeste 0 -- -- 96
2017-09-25 02:00:00 20.4 11 Sudoeste 18 Sudoeste 0 -- -- 95
2017-09-25 01:00:00 20.7 13 Sudoeste 20 Sudoeste 0 -- -- 95
2017-09-25 00:00:00 20.5 10 Sudoeste 18 Sudoeste 0 -- -- 95
2017-09-24 23:00:00 21.1 9 Sudoeste 15 Sudoeste 0 -- -- 92
2017-09-24 22:00:00 21.3 11 Sudoeste 18 Sudoeste 0 -- -- 90
2017-09-24 21:00:00 22 10 Sudoeste 23 Oeste 0 -- -- 85
2017-09-24 20:00:00 23.1 11 Sudoeste 19 Oeste 0 -- -- 82
2017-09-24 19:00:00 24.3 6 Norte 29 Sur 0 -- -- 79
2017-09-24 18:00:00 24.8 20 Sur 35 Sur 0 -- -- 77
2017-09-24 17:00:00 24.7 22 Sur 40 Sudeste 0 -- -- 81
2017-09-24 16:00:00 26.6 23 Sur 31 Sur 0 -- -- 64
2017-09-24 15:00:00 26.6 23 Sur 28 Sur 0 -- -- 62
2017-09-24 14:00:00 26.9 25 Sur 29 Sur 0 -- -- 56
2017-09-24 13:00:00 26.1 19 Sur 23 Sudeste 0 -- -- 62
2017-09-24 12:00:00 25.4 0 Calma 15 Norte 0 -- -- 68
2017-09-24 11:00:00 24.6 8 Norte 14 Norte 0 -- -- 71
2017-09-24 10:00:00 24.6 6 Sudoeste 12 Oeste 0 -- -- 69
2017-09-24 09:00:00 22.8 10 Oeste 12 Oeste 0 -- -- 79
2017-09-24 08:00:00 20 12 Oeste 14 Oeste 0 -- -- 86
2017-09-24 07:00:00 19.6 11 Noroeste 14 Oeste 0 -- -- 88
2017-09-24 06:00:00 19.8 8 Sudoeste 14 Sudoeste 0 -- -- 92
2017-09-24 05:00:00 19.8 11 Oeste 14 Sudoeste 0 -- -- 92
2017-09-24 04:00:00 20.2 8 Oeste 10 Sudoeste 0 -- -- 92
2017-09-24 03:00:00 20.4 8 Sudoeste 9 Sudoeste 0 -- -- 92
2017-09-24 02:00:00 20.7 8 Sudoeste 9 Sudoeste 0 -- -- 92
2017-09-24 01:00:00 20.8 7 Sudoeste 13 Sur 0 -- -- 92
2017-09-24 00:00:00 21.3 5 Sur 15 Sudeste 0 -- -- 90
2017-09-23 23:00:00 21.6 8 Este 16 Nordeste 0 -- -- 88
2017-09-23 22:00:00 21.5 8 Nordeste 14 Nordeste 0 -- -- 86
2017-09-23 21:00:00 21.5 9 Nordeste 17 Nordeste 0 -- -- 84
2017-09-23 20:00:00 21.6 13 Norte 22 Norte 0 -- -- 86
2017-09-23 19:00:00 21.9 14 Norte 22 Norte 0 -- -- 85
2017-09-23 18:00:00 22.3 12 Norte 17 Norte 0 -- -- 77
2017-09-23 17:00:00 23.2 9 Nordeste 15 Nordeste 0 -- -- 73
2017-09-23 16:00:00 23.2 5 Nordeste 15 Nordeste 0 -- -- 72
2017-09-23 15:00:00 23.7 9 Nordeste 16 Nordeste 0 -- -- 70
2017-09-23 14:00:00 24 5 Este 22 Sudeste 0 -- -- 68
2017-09-23 13:00:00 24 10 Sudeste 19 Sudeste 0 -- -- 69
2017-09-23 12:00:00 23.9 8 Este 19 Este 0 -- -- 70
2017-09-23 11:00:00 23.4 12 Nordeste 23 Nordeste 0 -- -- 75
2017-09-23 10:00:00 22.9 16 Nordeste 22 Nordeste 0 -- -- 75
2017-09-23 09:00:00 22.3 13 Nordeste 27 Nordeste 0 -- -- 79
2017-09-23 08:00:00 21.3 18 Nordeste 27 Nordeste 0 -- -- 85
2017-09-23 07:00:00 21.2 17 Nordeste 25 Nordeste 0 -- -- 86
2017-09-23 06:00:00 21.4 10 Este 21 Nordeste 0 -- -- 87
2017-09-23 05:00:00 21.3 9 Este 19 Sudeste 0 -- -- 85
2017-09-23 04:00:00 21.4 12 Este 22 Sudeste 0 -- -- 81
2017-09-23 03:00:00 21.4 13 Este 20 Sudeste 0 -- -- 86
2017-09-23 02:00:00 21.3 9 Nordeste 22 Este 0 -- -- 86
2017-09-23 01:00:00 21.5 12 Este 24 Este 0 -- -- 87
2017-09-23 00:00:00 21.6 13 Este 25 Nordeste 0 -- -- 86
2017-09-22 23:00:00 21.7 15 Este 28 Este 0 -- -- 84
2017-09-22 22:00:00 21.8 18 Este 29 Este 0 -- -- 85
2017-09-22 21:00:00 22 17 Sudeste 23 Nordeste 0 -- -- 83
2017-09-22 20:00:00 22.1 13 Sudeste 18 Este 0 -- -- 82
2017-09-22 19:00:00 22.1 6 Este 20 Norte 0 -- -- 79
2017-09-22 18:00:00 22.2 10 Nordeste 18 Nordeste 0 -- -- 78
2017-09-22 17:00:00 22.8 10 Nordeste 17 Nordeste 0 -- -- 76
2017-09-22 16:00:00 23.1 10 Este 23 Sudeste 0 -- -- 72
2017-09-22 15:00:00 23.7 14 Este 24 Este 0 -- -- 72
2017-09-22 14:00:00 24.3 15 Sudeste 25 Este 0 -- -- 70
2017-09-22 13:00:00 23.8 15 Este 25 Sudeste 0 -- -- 69
2017-09-22 12:00:00 23.4 14 Este 27 Este 0 -- -- 70
2017-09-22 11:00:00 23.7 17 Este 27 Este 0 -- -- 69
2017-09-22 10:00:00 22.6 12 Este 24 Nordeste 0 -- -- 76
2017-09-22 09:00:00 22.6 12 Este 24 Este 0 -- -- 76
2017-09-22 08:00:00 21.3 12 Este 22 Este 0 -- -- 82
2017-09-22 07:00:00 21.2 12 Este 25 Nordeste 0 -- -- 82
2017-09-22 06:00:00 21.3 14 Este 27 Este 0 -- -- 83
2017-09-22 05:00:00 21.3 13 Este 26 Sudeste 0 -- -- 81
2017-09-22 04:00:00 21.4 16 Sudeste 26 Sudeste 0 -- -- 82
2017-09-22 03:00:00 21.4 16 Sudeste 27 Este 0 -- -- 80
2017-09-22 02:00:00 21.5 21 Sudeste 30 Sudeste 0 -- -- 79
2017-09-22 01:00:00 21.7 22 Sudeste 30 Sudeste 0 -- -- 77
2017-09-22 00:00:00 21.7 24 Sudeste 32 Sudeste 0 -- -- 79
2017-09-21 23:00:00 21.8 25 Sudeste 34 Sudeste 0 -- -- 78
2017-09-21 22:00:00 21.8 22 Sur 30 Sur 0 -- -- 74
2017-09-21 21:00:00 21.8 23 Sur 31 Sur 0 -- -- 74
2017-09-21 20:00:00 21.9 24 Sur 32 Sur 0 -- -- 75
2017-09-21 19:00:00 22.4 25 Sur 32 Sudeste 0 -- -- 69
2017-09-21 18:00:00 23.3 25 Sur 30 Sur 0 -- -- 66
2017-09-21 17:00:00 24.9 22 Sur 28 Sur 0 -- -- 61
2017-09-21 16:00:00 26 22 Sur 30 Sur 0 -- -- 59
2017-09-21 15:00:00 26.3 24 Sur 34 Sudeste 0 -- -- 58
2017-09-21 14:00:00 25.9 25 Sur 34 Sur 0 -- -- 60
2017-09-21 13:00:00 25.6 23 Sur 35 Sur 0 -- -- 62
2017-09-21 12:00:00 24.8 21 Sur 32 Sur 0 -- -- 62
2017-09-21 11:00:00 23.5 18 Sur 32 Sur 0 -- -- 67
2017-09-21 10:00:00 23 13 Sur 18 Sur 0 -- -- 74
2017-09-21 09:00:00 21.7 12 Sudoeste 15 Sudoeste 0 -- -- 79
2017-09-21 08:00:00 20.2 14 Sudoeste 17 Sudoeste 0 -- -- 82
2017-09-21 07:00:00 20 15 Sudoeste 17 Sudoeste 0 -- -- 82
2017-09-21 06:00:00 20.2 16 Sur 18 Sur 0 -- -- 81
2017-09-21 05:00:00 20.2 16 Sudoeste 18 Sudoeste 0 -- -- 81
2017-09-21 04:00:00 20.3 16 Sudoeste 18 Sudoeste 0 -- -- 80
2017-09-21 03:00:00 20.1 13 Sudoeste 16 Sudoeste 0 -- -- 81
2017-09-21 02:00:00 20 12 Sur 17 Sudoeste 0 -- -- 83
2017-09-21 01:00:00 19.9 12 Sudoeste 16 Sudoeste 0 -- -- 83
2017-09-21 00:00:00 20.1 14 Sudoeste 19 Sudoeste 0 -- -- 81
2017-09-20 23:00:00 20 12 Sudoeste 17 Sudoeste 0 -- -- 78
2017-09-20 22:00:00 20.4 12 Sudoeste 21 Sudoeste 0 -- -- 76
2017-09-20 21:00:00 20.9 14 Sudoeste 23 Sudoeste 0 -- -- 76
2017-09-20 20:00:00 21.7 17 Sur 37 Sudoeste 0 -- -- 73
2017-09-20 19:00:00 21.9 22 Sur 39 Sur 0 -- -- 69
2017-09-20 18:00:00 22.1 21 Sur 35 Sur 0 -- -- 64
2017-09-20 17:00:00 22.6 21 Sur 39 Sur 0 -- -- 62
2017-09-20 16:00:00 22.6 22 Sur 36 Sur 0 -- -- 62
2017-09-20 15:00:00 23.1 19 Sur 31 Sur 0 -- -- 59
2017-09-20 14:00:00 23.7 16 Sur 22 Sur 0 -- -- 62
2017-09-20 13:00:00 21.8 10 Sudeste 20 Sur 0 -- -- 65
2017-09-20 12:00:00 22 8 Sudeste 17 Este 0 -- -- 65
2017-09-20 11:00:00 20.9 6 Este 15 Sur 0 -- -- 69
2017-09-20 10:00:00 20.4 3 Nordeste 14 Nordeste 0 -- -- 72
2017-09-20 09:00:00 20.4 4 Este 14 Sudoeste 0 -- -- 71
2017-09-20 08:00:00 18.8 0 Calma 7 Sudoeste 0 -- -- 66
2017-09-20 07:00:00 18.5 0 Calma 12 Sur 0 -- -- 67
2017-09-20 06:00:00 19.2 7 Este 20 Nordeste 0 -- -- 64
2017-09-20 05:00:00 19.4 11 Nordeste 24 Nordeste 0 -- -- 62
2017-09-20 04:00:00 19.9 10 Nordeste 22 Sur 0 -- -- 59
2017-09-20 03:00:00 19.9 9 Nordeste 22 Nordeste 0 -- -- 58
2017-09-20 02:00:00 19.9 15 Nordeste 28 Nordeste 0 -- -- 60
2017-09-20 01:00:00 19.5 12 Nordeste 25 Nordeste 0 -- -- 60
2017-09-20 00:00:00 19.6 15 Este 31 Nordeste 0 -- -- 63